createdAt,value
2023-02-06T00:00:38.287Z,44.13
2023-02-06T00:01:31.096Z,43.71
2023-02-06T00:02:26.268Z,43.70
2023-02-06T00:03:20.321Z,44.16
2023-02-06T00:04:16.034Z,43.76
2023-02-06T00:05:08.887Z,43.79
2023-02-06T00:06:04.325Z,43.89
2023-02-06T00:06:57.093Z,43.77
2023-02-06T00:07:54.848Z,44.07
2023-02-06T00:08:50.015Z,43.75
2023-02-06T00:09:45.220Z,43.83
2023-02-06T00:10:37.806Z,44.21
2023-02-06T00:11:32.997Z,44.20
2023-02-06T00:12:25.567Z,44.20
2023-02-06T00:13:20.965Z,43.90
2023-02-06T00:14:13.527Z,44.05
2023-02-06T00:15:09.436Z,43.78
2023-02-06T00:16:02.047Z,44.09
2023-02-06T00:16:57.243Z,44.04
2023-02-06T00:17:49.797Z,43.95
2023-02-06T00:18:44.936Z,43.95
2023-02-06T00:19:38.173Z,44.21
2023-02-06T00:20:33.430Z,43.73
2023-02-06T00:21:27.132Z,43.82
2023-02-06T00:22:22.281Z,44.10
2023-02-06T00:23:15.180Z,43.88
2023-02-06T00:24:12.980Z,43.80
2023-02-06T00:25:06.451Z,44.24
2023-02-06T00:26:01.604Z,43.73
2023-02-06T00:26:54.149Z,43.85
2023-02-06T00:27:49.337Z,44.23
2023-02-06T00:28:41.936Z,44.22
2023-02-06T00:29:37.185Z,44.26
2023-02-06T00:30:29.819Z,43.85
2023-02-06T00:31:25.097Z,43.78
2023-02-06T00:32:17.711Z,43.86
2023-02-06T00:33:12.891Z,44.26
2023-02-06T00:34:05.540Z,43.89
2023-02-06T00:35:00.792Z,44.22
2023-02-06T00:35:53.380Z,44.22
2023-02-06T00:36:48.589Z,44.17
2023-02-06T00:37:41.154Z,44.32
2023-02-06T00:38:36.407Z,43.91
2023-02-06T00:39:31.867Z,44.05
2023-02-06T00:40:28.941Z,44.16
2023-02-06T00:41:21.672Z,44.19
2023-02-06T00:42:19.488Z,44.23
2023-02-06T00:43:12.060Z,44.08
2023-02-06T00:44:07.303Z,44.29
2023-02-06T00:44:59.892Z,44.08
2023-02-06T00:45:52.711Z,43.80
2023-02-06T00:46:47.872Z,44.14
2023-02-06T00:47:40.454Z,44.14
2023-02-06T00:48:35.624Z,44.19
2023-02-06T00:49:29.009Z,43.81
2023-02-06T00:50:21.816Z,43.79
2023-02-06T00:51:16.986Z,44.12
2023-02-06T00:52:09.641Z,44.12
2023-02-06T00:53:04.854Z,44.00
2023-02-06T00:53:57.461Z,44.14
2023-02-06T00:54:55.251Z,43.88
2023-02-06T00:55:48.559Z,43.88
2023-02-06T00:56:43.710Z,44.07
2023-02-06T00:57:36.291Z,43.77
2023-02-06T00:58:31.513Z,43.71
2023-02-06T00:59:24.140Z,44.03
2023-02-06T01:00:19.904Z,44.00
2023-02-06T01:01:12.542Z,43.81
2023-02-06T01:02:07.734Z,43.76
2023-02-06T01:03:00.594Z,44.11
2023-02-06T01:03:55.927Z,44.03
2023-02-06T01:04:48.514Z,43.76
2023-02-06T01:05:43.717Z,44.03
2023-02-06T01:06:36.948Z,44.05
2023-02-06T01:07:32.175Z,44.15
2023-02-06T01:08:24.727Z,43.99
2023-02-06T01:09:20.002Z,44.20
2023-02-06T01:10:15.380Z,43.94
2023-02-06T01:11:14.657Z,43.82
2023-02-06T01:12:07.838Z,44.14
2023-02-06T01:13:03.011Z,43.86
2023-02-06T01:13:55.580Z,43.83
2023-02-06T01:14:50.868Z,43.97
2023-02-06T01:15:43.509Z,43.88
2023-02-06T01:16:38.748Z,43.77
2023-02-06T01:17:32.236Z,43.91
2023-02-06T01:18:27.388Z,44.17
2023-02-06T01:19:19.996Z,43.86
2023-02-06T01:20:16.527Z,44.16
2023-02-06T01:21:09.879Z,43.68
2023-02-06T01:22:05.061Z,43.99
2023-02-06T01:22:57.632Z,44.01
2023-02-06T01:23:53.994Z,44.09
2023-02-06T01:24:46.765Z,44.26
2023-02-06T01:25:44.569Z,43.95
2023-02-06T01:26:37.196Z,44.05
2023-02-06T01:27:32.400Z,44.21
2023-02-06T01:28:24.976Z,44.05
2023-02-06T01:29:20.132Z,43.71
2023-02-06T01:30:13.845Z,43.92
2023-02-06T01:31:13.929Z,43.85
2023-02-06T01:32:06.544Z,44.17
2023-02-06T01:33:01.748Z,44.20
2023-02-06T01:33:54.763Z,44.22
2023-02-06T01:34:49.942Z,44.09
2023-02-06T01:35:42.510Z,43.85
2023-02-06T01:36:35.096Z,43.97
2023-02-06T01:37:32.231Z,44.19
2023-02-06T01:38:25.864Z,43.97
2023-02-06T01:39:21.050Z,43.90
2023-02-06T01:40:15.772Z,44.22
2023-02-06T01:41:14.176Z,43.87
2023-02-06T01:42:06.868Z,44.19
2023-02-06T01:43:02.255Z,44.03
2023-02-06T01:44:10.927Z,44.08
2023-02-06T01:45:30.684Z,43.99
2023-02-06T01:46:23.703Z,44.00
2023-02-06T01:47:18.891Z,44.24
2023-02-06T01:48:18.160Z,44.31
2023-02-06T01:49:18.874Z,43.87
2023-02-06T01:50:11.432Z,43.78
2023-02-06T01:51:08.020Z,44.00
2023-02-06T01:52:04.410Z,44.08
2023-02-06T01:52:59.631Z,43.78
2023-02-06T01:53:56.498Z,43.76
2023-02-06T01:54:55.400Z,43.73
2023-02-06T01:55:48.905Z,43.64
2023-02-06T01:56:49.824Z,43.83
2023-02-06T01:57:43.123Z,43.73
2023-02-06T01:58:40.585Z,44.06
2023-02-06T01:59:33.596Z,43.95
2023-02-06T02:00:28.826Z,43.78
2023-02-06T02:01:21.984Z,43.87
2023-02-06T02:02:17.347Z,43.81
2023-02-06T02:03:10.071Z,43.98
2023-02-06T02:04:08.233Z,43.69
2023-02-06T02:05:02.363Z,43.85
2023-02-06T02:06:02.613Z,43.64
2023-02-06T02:07:02.472Z,44.09
2023-02-06T02:08:01.369Z,44.12
2023-02-06T02:08:58.082Z,43.97
2023-02-06T02:09:53.501Z,44.10
2023-02-06T02:10:46.175Z,43.76
2023-02-06T02:11:43.231Z,44.01
2023-02-06T02:12:38.419Z,44.02
2023-02-06T02:13:34.407Z,43.62
2023-02-06T02:14:27.043Z,43.60
2023-02-06T02:15:22.752Z,43.83
2023-02-06T02:16:19.516Z,43.60
2023-02-06T02:17:25.076Z,43.88
2023-02-06T02:18:29.961Z,43.86
2023-02-06T02:19:58.468Z,44.02
2023-02-06T02:21:21.140Z,43.64
2023-02-06T02:22:42.583Z,43.75
2023-02-06T02:23:42.333Z,43.99
2023-02-06T02:24:53.121Z,43.64
2023-02-06T02:26:05.940Z,43.81
2023-02-06T02:27:19.907Z,43.96
2023-02-06T02:28:33.341Z,44.10
2023-02-06T02:30:07.614Z,44.04
2023-02-06T02:31:34.329Z,44.10
2023-02-06T02:32:43.292Z,44.02
2023-02-06T02:33:47.843Z,43.81
2023-02-06T02:35:08.811Z,43.93
2023-02-06T02:36:07.296Z,43.83
2023-02-06T02:37:06.304Z,43.90
2023-02-06T02:38:05.323Z,43.85
2023-02-06T02:39:09.554Z,43.86
2023-02-06T02:40:08.491Z,43.86
2023-02-06T02:41:07.113Z,44.13
2023-02-06T02:42:06.467Z,43.71
2023-02-06T02:43:10.564Z,43.71
2023-02-06T02:44:06.391Z,44.18
2023-02-06T02:45:08.992Z,43.88
2023-02-06T02:46:07.079Z,44.00
2023-02-06T02:47:05.090Z,43.75
2023-02-06T02:48:01.907Z,43.75
2023-02-06T02:49:00.001Z,43.86
2023-02-06T02:49:55.280Z,44.14
2023-02-06T02:50:50.931Z,44.12
2023-02-06T02:51:43.844Z,44.12
2023-02-06T02:52:39.025Z,43.82
2023-02-06T02:53:31.779Z,43.90
2023-02-06T02:54:27.605Z,44.02
2023-02-06T02:55:22.733Z,43.99
2023-02-06T02:56:24.064Z,43.97
2023-02-06T02:57:20.276Z,43.98
2023-02-06T02:58:19.754Z,43.78
2023-02-06T02:59:14.714Z,44.00
2023-02-06T03:00:12.756Z,43.74
2023-02-06T03:01:11.608Z,43.86
2023-02-06T03:02:08.755Z,43.81
2023-02-06T03:03:01.437Z,44.02
2023-02-06T03:03:55.058Z,44.02
2023-02-06T03:04:53.560Z,43.88
2023-02-06T03:05:54.887Z,44.04
2023-02-06T03:07:16.253Z,43.75
2023-02-06T03:08:15.536Z,43.63
2023-02-06T03:09:16.687Z,43.97
2023-02-06T03:10:15.752Z,43.79
2023-02-06T03:11:16.142Z,43.88
2023-02-06T03:12:13.479Z,43.97
2023-02-06T03:13:15.082Z,43.95
2023-02-06T03:14:12.575Z,43.61
2023-02-06T03:15:12.080Z,43.67
2023-02-06T03:16:09.218Z,43.52
2023-02-06T03:17:08.198Z,43.56
2023-02-06T03:18:03.992Z,43.93
2023-02-06T03:19:03.280Z,43.51
2023-02-06T03:19:58.071Z,43.64
2023-02-06T03:20:56.134Z,43.68
2023-02-06T03:21:49.370Z,43.78
2023-02-06T03:22:45.812Z,43.93
2023-02-06T03:23:40.362Z,43.95
2023-02-06T03:24:39.928Z,43.57
2023-02-06T03:25:36.053Z,43.93
2023-02-06T03:26:32.632Z,43.81
2023-02-06T03:27:26.391Z,43.95
2023-02-06T03:28:23.899Z,43.51
2023-02-06T03:29:17.404Z,43.52
2023-02-06T03:30:15.515Z,43.64
2023-02-06T03:31:10.297Z,43.82
2023-02-06T03:32:08.614Z,43.52
2023-02-06T03:33:04.807Z,43.95
2023-02-06T03:34:00.915Z,43.59
2023-02-06T03:35:00.996Z,43.59
2023-02-06T03:35:58.130Z,43.57
2023-02-06T03:36:53.871Z,43.85
2023-02-06T03:37:46.983Z,43.83
2023-02-06T03:38:42.190Z,43.47
2023-02-06T03:39:34.915Z,43.86
2023-02-06T03:40:31.056Z,43.49
2023-02-06T03:41:25.291Z,43.70
2023-02-06T03:42:20.994Z,43.50
2023-02-06T03:43:18.778Z,43.44
2023-02-06T03:44:16.348Z,43.80
2023-02-06T03:45:14.089Z,43.53
2023-02-06T03:46:12.633Z,43.46
2023-02-06T03:47:06.674Z,43.95
2023-02-06T03:48:05.389Z,43.63
2023-02-06T03:49:00.013Z,43.66
2023-02-06T03:49:55.423Z,43.50
2023-02-06T03:50:50.422Z,43.70
2023-02-06T03:51:51.100Z,43.68
2023-02-06T03:52:46.300Z,43.77
2023-02-06T03:53:42.137Z,43.90
2023-02-06T03:54:37.689Z,43.60
2023-02-06T03:55:33.321Z,43.77
2023-02-06T03:56:29.430Z,43.68
2023-02-06T03:57:25.744Z,43.89
2023-02-06T03:58:18.474Z,43.76
2023-02-06T03:59:13.739Z,43.63
2023-02-06T04:00:07.374Z,43.55
2023-02-06T04:01:08.934Z,43.81
2023-02-06T04:02:03.320Z,43.58
2023-02-06T04:02:59.507Z,43.72
2023-02-06T04:03:53.075Z,43.52
2023-02-06T04:04:48.836Z,43.68
2023-02-06T04:05:41.757Z,43.76
2023-02-06T04:06:36.959Z,43.82
2023-02-06T04:07:34.082Z,43.81
2023-02-06T04:08:29.391Z,43.72
2023-02-06T04:09:22.000Z,43.82
2023-02-06T04:10:17.204Z,43.37
2023-02-06T04:11:09.784Z,43.51
2023-02-06T04:12:04.966Z,43.34
2023-02-06T04:12:57.809Z,43.47
2023-02-06T04:13:52.969Z,43.66
2023-02-06T04:14:45.694Z,43.66
2023-02-06T04:15:38.405Z,43.34
2023-02-06T04:16:33.933Z,43.78
2023-02-06T04:17:43.131Z,43.71
2023-02-06T04:18:38.957Z,43.53
2023-02-06T04:19:31.779Z,43.32
2023-02-06T04:20:26.972Z,43.28
2023-02-06T04:21:19.740Z,43.34
2023-02-06T04:22:17.335Z,43.56
2023-02-06T04:23:12.512Z,43.30
2023-02-06T04:24:08.165Z,43.64
2023-02-06T04:25:00.845Z,43.62
2023-02-06T04:25:56.017Z,43.52
2023-02-06T04:26:48.615Z,43.56
2023-02-06T04:27:43.843Z,43.47
2023-02-06T04:28:36.444Z,43.19
2023-02-06T04:29:31.860Z,43.37
2023-02-06T04:30:24.504Z,43.50
2023-02-06T04:31:19.722Z,43.25
2023-02-06T04:32:12.302Z,43.34
2023-02-06T04:33:07.893Z,43.66
2023-02-06T04:34:00.462Z,43.45
2023-02-06T04:34:55.617Z,43.44
2023-02-06T04:35:48.490Z,43.61
2023-02-06T04:36:43.709Z,43.37
2023-02-06T04:37:37.735Z,43.20
2023-02-06T04:38:35.487Z,43.49
2023-02-06T04:39:28.307Z,43.59
2023-02-06T04:40:23.752Z,43.35
2023-02-06T04:41:16.339Z,43.61
2023-02-06T04:42:11.579Z,43.40
2023-02-06T04:43:04.125Z,43.25
2023-02-06T04:43:59.280Z,43.28
2023-02-06T04:44:51.829Z,43.57
2023-02-06T04:45:47.056Z,43.51
2023-02-06T04:46:39.620Z,43.16
2023-02-06T04:47:34.856Z,43.20
2023-02-06T04:48:27.661Z,43.33
2023-02-06T04:49:22.851Z,43.57
2023-02-06T04:50:15.578Z,43.19
2023-02-06T04:51:10.820Z,43.23
2023-02-06T04:52:03.552Z,43.59
2023-02-06T04:52:58.706Z,43.07
2023-02-06T04:53:53.886Z,43.18
2023-02-06T04:54:49.062Z,43.45
2023-02-06T04:55:41.697Z,43.54
2023-02-06T04:56:37.035Z,43.47
2023-02-06T04:57:29.689Z,43.28
2023-02-06T04:58:24.946Z,43.33
2023-02-06T04:59:17.534Z,43.47
2023-02-06T05:00:14.724Z,43.14
2023-02-06T05:01:07.660Z,43.10
2023-02-06T05:02:03.084Z,43.18
2023-02-06T05:02:55.672Z,43.61
2023-02-06T05:03:51.202Z,43.29
2023-02-06T05:04:43.804Z,43.42
2023-02-06T05:05:39.043Z,43.31
2023-02-06T05:06:31.797Z,43.23
2023-02-06T05:07:27.028Z,43.55
2023-02-06T05:08:19.795Z,43.41
2023-02-06T05:09:18.170Z,43.33
2023-02-06T05:10:10.758Z,43.13
2023-02-06T05:11:05.995Z,43.43
2023-02-06T05:11:58.593Z,43.16
2023-02-06T05:12:56.126Z,43.43
2023-02-06T05:13:48.691Z,43.45
2023-02-06T05:14:43.868Z,43.30
2023-02-06T05:15:37.066Z,43.28
2023-02-06T05:16:32.542Z,43.56
2023-02-06T05:17:25.122Z,43.54
2023-02-06T05:18:20.739Z,43.40
2023-02-06T05:19:13.577Z,43.30
2023-02-06T05:20:10.051Z,43.08
2023-02-06T05:21:02.975Z,43.16
2023-02-06T05:21:58.129Z,43.60
2023-02-06T05:22:50.699Z,43.43
2023-02-06T05:23:45.875Z,43.08
2023-02-06T05:24:41.038Z,43.35
2023-02-06T05:25:37.350Z,43.29
2023-02-06T05:26:30.088Z,43.16
2023-02-06T05:27:25.776Z,43.49
2023-02-06T05:28:18.417Z,43.20
2023-02-06T05:29:13.798Z,43.45
2023-02-06T05:30:07.361Z,43.13
2023-02-06T05:31:02.706Z,43.39
2023-02-06T05:31:55.507Z,43.41
2023-02-06T05:32:50.673Z,42.98
2023-02-06T05:33:43.231Z,43.47
2023-02-06T05:34:38.468Z,43.04
2023-02-06T05:35:31.086Z,43.38
2023-02-06T05:36:26.347Z,43.38
2023-02-06T05:37:19.088Z,43.06
2023-02-06T05:38:14.606Z,43.21
2023-02-06T05:39:07.181Z,43.24
2023-02-06T05:40:04.950Z,43.49
2023-02-06T05:40:57.575Z,43.45
2023-02-06T05:41:52.894Z,43.20
2023-02-06T05:42:45.455Z,43.33
2023-02-06T05:43:40.996Z,43.35
2023-02-06T05:44:33.545Z,43.18
2023-02-06T05:45:28.812Z,43.15
2023-02-06T05:46:21.407Z,43.42
2023-02-06T05:47:16.601Z,43.52
2023-02-06T05:48:09.203Z,43.19
2023-02-06T05:49:04.620Z,43.16
2023-02-06T05:49:57.210Z,43.13
2023-02-06T05:50:52.841Z,43.45
2023-02-06T05:51:45.520Z,43.39
2023-02-06T05:52:40.692Z,43.19
2023-02-06T05:53:33.279Z,43.41
2023-02-06T05:54:28.524Z,43.63
2023-02-06T05:55:23.667Z,43.21
2023-02-06T05:56:18.829Z,43.64
2023-02-06T05:57:11.549Z,43.33
2023-02-06T05:58:06.708Z,43.61
2023-02-06T05:58:59.469Z,43.69
2023-02-06T05:59:54.631Z,43.64
2023-02-06T06:00:47.207Z,43.35
2023-02-06T06:01:42.379Z,43.56
2023-02-06T06:02:34.994Z,43.53
2023-02-06T06:03:33.071Z,43.75
2023-02-06T06:04:26.332Z,44.50
2023-02-06T06:05:21.634Z,44.72
2023-02-06T06:06:14.207Z,44.86
2023-02-06T06:07:09.541Z,44.96
2023-02-06T06:08:02.155Z,44.65
2023-02-06T06:08:57.319Z,44.44
2023-02-06T06:09:49.964Z,43.98
2023-02-06T06:10:47.722Z,43.50
2023-02-06T06:11:40.315Z,43.14
2023-02-06T06:12:35.514Z,42.50
2023-02-06T06:13:28.059Z,42.55
2023-02-06T06:14:23.223Z,41.76
2023-02-06T06:15:16.201Z,41.97
2023-02-06T06:16:11.422Z,41.39
2023-02-06T06:17:04.038Z,41.25
2023-02-06T06:17:59.204Z,40.88
2023-02-06T06:18:51.874Z,40.38
2023-02-06T06:19:47.066Z,40.02
2023-02-06T06:20:42.495Z,39.98
2023-02-06T06:21:37.689Z,40.06
2023-02-06T06:22:30.235Z,39.75
2023-02-06T06:23:25.414Z,39.55
2023-02-06T06:24:18.079Z,39.03
2023-02-06T06:25:13.277Z,39.12
2023-02-06T06:26:08.564Z,39.04
2023-02-06T06:27:04.064Z,38.97
2023-02-06T06:27:56.641Z,38.64
2023-02-06T06:28:51.932Z,39.09
2023-02-06T06:29:44.526Z,38.93
2023-02-06T06:30:40.354Z,38.55
2023-02-06T06:31:33.031Z,37.73
2023-02-06T06:32:28.213Z,37.85
2023-02-06T06:33:20.755Z,38.31
2023-02-06T06:34:16.086Z,38.43
2023-02-06T06:35:09.195Z,38.39
2023-02-06T06:36:04.359Z,38.41
2023-02-06T06:36:56.926Z,38.73
2023-02-06T06:37:52.116Z,39.11
2023-02-06T06:38:44.753Z,39.43
2023-02-06T06:39:39.912Z,39.28
2023-02-06T06:40:32.470Z,39.53
2023-02-06T06:41:30.507Z,39.94
2023-02-06T06:42:23.162Z,39.82
2023-02-06T06:43:18.353Z,40.06
2023-02-06T06:44:10.940Z,40.35
2023-02-06T06:45:06.520Z,40.21
2023-02-06T06:46:00.568Z,40.31
2023-02-06T06:46:55.818Z,40.53
2023-02-06T06:47:48.437Z,40.76
2023-02-06T06:48:43.615Z,40.42
2023-02-06T06:49:36.188Z,40.89
2023-02-06T06:50:31.362Z,40.88
2023-02-06T06:51:24.043Z,40.84
2023-02-06T06:52:24.787Z,41.10
2023-02-06T06:53:18.494Z,40.91
2023-02-06T06:54:14.567Z,41.28
2023-02-06T06:55:07.771Z,41.34
2023-02-06T06:56:06.286Z,40.99
2023-02-06T06:57:01.463Z,41.25
2023-02-06T06:57:56.780Z,41.29
2023-02-06T06:58:50.265Z,41.46
2023-02-06T06:59:45.437Z,41.22
2023-02-06T07:00:38.787Z,41.71
2023-02-06T07:01:34.000Z,41.79
2023-02-06T07:02:28.582Z,41.68
2023-02-06T07:03:23.970Z,41.74
2023-02-06T07:04:16.562Z,41.71
2023-02-06T07:05:12.004Z,41.74
2023-02-06T07:06:04.793Z,41.99
2023-02-06T07:07:00.035Z,41.95
2023-02-06T07:07:52.658Z,42.07
2023-02-06T07:08:47.857Z,42.02
2023-02-06T07:09:40.437Z,42.04
2023-02-06T07:10:35.636Z,42.24
2023-02-06T07:11:28.260Z,42.18
2023-02-06T07:12:26.077Z,42.11
2023-02-06T07:13:18.684Z,42.14
2023-02-06T07:14:13.846Z,42.49
2023-02-06T07:15:07.433Z,42.40
2023-02-06T07:16:02.735Z,42.12
2023-02-06T07:16:56.476Z,42.44
2023-02-06T07:17:51.760Z,42.70
2023-02-06T07:18:44.332Z,42.38
2023-02-06T07:19:39.540Z,42.17
2023-02-06T07:20:32.100Z,42.53
2023-02-06T07:21:27.308Z,42.45
2023-02-06T07:22:20.251Z,42.65
2023-02-06T07:23:15.543Z,42.24
2023-02-06T07:24:08.663Z,42.60
2023-02-06T07:25:03.831Z,42.28
2023-02-06T07:25:56.691Z,42.48
2023-02-06T07:26:51.853Z,42.33
2023-02-06T07:27:47.047Z,42.47
2023-02-06T07:28:42.377Z,42.37
2023-02-06T07:29:35.003Z,42.29
2023-02-06T07:30:30.490Z,42.48
2023-02-06T07:31:23.144Z,42.70
2023-02-06T07:32:18.332Z,42.33
2023-02-06T07:33:11.039Z,42.58
2023-02-06T07:34:06.209Z,42.35
2023-02-06T07:34:58.780Z,42.69
2023-02-06T07:35:53.961Z,42.65
2023-02-06T07:36:46.537Z,42.77
2023-02-06T07:37:41.697Z,42.65
2023-02-06T07:38:34.251Z,42.28
2023-02-06T07:39:29.545Z,42.36
2023-02-06T07:40:22.229Z,42.74
2023-02-06T07:41:18.119Z,42.45
2023-02-06T07:42:12.058Z,42.73
2023-02-06T07:43:29.213Z,42.38
2023-02-06T07:44:24.407Z,42.41
2023-02-06T07:45:17.264Z,42.69
2023-02-06T07:46:12.504Z,42.81
2023-02-06T07:47:05.874Z,42.46
2023-02-06T07:48:01.557Z,42.66
2023-02-06T07:48:54.272Z,42.37
2023-02-06T07:49:49.627Z,42.67
2023-02-06T07:50:42.202Z,42.62
2023-02-06T07:51:37.371Z,42.70
2023-02-06T07:52:30.032Z,42.33
2023-02-06T07:53:25.268Z,42.72
2023-02-06T07:54:19.922Z,42.48
2023-02-06T07:55:15.917Z,42.51
2023-02-06T07:56:11.277Z,42.66
2023-02-06T07:57:06.487Z,42.63
2023-02-06T07:57:59.108Z,42.33
2023-02-06T07:58:57.890Z,42.61
2023-02-06T07:59:50.457Z,42.54
2023-02-06T08:00:46.018Z,42.63
2023-02-06T08:01:41.199Z,42.36
2023-02-06T08:02:33.800Z,42.43
2023-02-06T08:03:29.082Z,42.33
2023-02-06T08:04:21.680Z,42.64
2023-02-06T08:05:16.895Z,42.60
2023-02-06T08:06:10.345Z,42.39
2023-02-06T08:07:06.113Z,42.67
2023-02-06T08:07:58.784Z,42.35
2023-02-06T08:08:54.338Z,42.67
2023-02-06T08:09:47.007Z,42.46
2023-02-06T08:10:42.624Z,42.38
2023-02-06T08:11:36.000Z,42.49
2023-02-06T08:12:32.667Z,42.85
2023-02-06T08:13:25.269Z,42.87
2023-02-06T08:14:23.097Z,42.75
2023-02-06T08:15:15.993Z,42.70
2023-02-06T08:16:13.859Z,42.91
2023-02-06T08:17:07.796Z,42.76
2023-02-06T08:18:02.941Z,42.45
2023-02-06T08:18:55.519Z,42.72
2023-02-06T08:19:51.528Z,43.17
2023-02-06T08:20:44.101Z,42.67
2023-02-06T08:21:39.643Z,42.89
2023-02-06T08:22:32.257Z,43.00
2023-02-06T08:23:27.422Z,42.91
2023-02-06T08:24:22.593Z,43.13
2023-02-06T08:25:15.240Z,42.79
2023-02-06T08:26:12.113Z,42.99
2023-02-06T08:27:07.433Z,42.83
2023-02-06T08:28:00.046Z,43.18
2023-02-06T08:28:55.355Z,43.16
2023-02-06T08:29:51.839Z,42.95
2023-02-06T08:30:47.270Z,43.33
2023-02-06T08:31:41.349Z,43.01
2023-02-06T08:32:37.748Z,42.94
2023-02-06T08:33:30.336Z,43.18
2023-02-06T08:34:25.608Z,43.29
2023-02-06T08:35:18.391Z,42.92
2023-02-06T08:36:14.540Z,43.22
2023-02-06T08:37:09.927Z,43.23
2023-02-06T08:38:02.494Z,42.88
2023-02-06T08:38:57.643Z,43.03
2023-02-06T08:39:50.317Z,43.34
2023-02-06T08:40:45.468Z,42.75
2023-02-06T08:41:42.205Z,42.86
2023-02-06T08:42:34.797Z,43.19
2023-02-06T08:43:31.597Z,42.81
2023-02-06T08:44:25.569Z,42.89
2023-02-06T08:45:23.428Z,42.98
2023-02-06T08:46:17.088Z,42.99
2023-02-06T08:47:12.278Z,42.84
2023-02-06T08:48:04.901Z,42.96
2023-02-06T08:49:00.852Z,43.15
2023-02-06T08:49:54.769Z,42.89
2023-02-06T08:50:49.973Z,42.79
2023-02-06T08:51:45.315Z,42.71
2023-02-06T08:52:37.998Z,42.80
2023-02-06T08:53:33.169Z,42.78
2023-02-06T08:54:25.760Z,42.43
2023-02-06T08:55:21.044Z,42.60
2023-02-06T08:56:20.526Z,42.55
2023-02-06T08:57:13.164Z,42.34
2023-02-06T08:58:08.747Z,42.43
2023-02-06T08:59:02.117Z,42.60
2023-02-06T08:59:57.303Z,42.29
2023-02-06T09:00:52.727Z,42.23
2023-02-06T09:01:49.413Z,42.28
2023-02-06T09:02:42.119Z,42.05
2023-02-06T09:03:37.546Z,42.46
2023-02-06T09:04:35.449Z,42.34
2023-02-06T09:05:28.283Z,42.43
2023-02-06T09:06:23.460Z,42.37
2023-02-06T09:07:18.780Z,42.19
2023-02-06T09:08:11.396Z,42.49
2023-02-06T09:09:08.154Z,42.33
2023-02-06T09:10:03.310Z,42.24
2023-02-06T09:10:55.980Z,42.23
2023-02-06T09:11:51.338Z,42.34
2023-02-06T09:12:46.551Z,42.37
2023-02-06T09:13:39.685Z,42.18
2023-02-06T09:14:35.529Z,42.50
2023-02-06T09:15:28.100Z,42.42
2023-02-06T09:16:26.148Z,42.04
2023-02-06T09:17:21.364Z,42.44
2023-02-06T09:18:13.936Z,42.48
2023-02-06T09:19:09.818Z,42.02
2023-02-06T09:20:03.037Z,42.50
2023-02-06T09:21:06.852Z,42.58
2023-02-06T09:22:02.029Z,42.07
2023-02-06T09:22:54.623Z,42.46
2023-02-06T09:23:52.058Z,42.44
2023-02-06T09:24:47.245Z,42.41
2023-02-06T09:25:42.461Z,42.44
2023-02-06T09:26:53.540Z,42.46
2023-02-06T09:27:52.445Z,42.33
2023-02-06T09:28:45.285Z,42.26
2023-02-06T09:29:40.477Z,42.23
2023-02-06T09:30:33.045Z,42.05
2023-02-06T09:31:32.944Z,42.46
2023-02-06T09:32:28.222Z,42.32
2023-02-06T09:33:23.804Z,42.29
2023-02-06T09:34:16.384Z,42.55
2023-02-06T09:35:11.856Z,42.37
2023-02-06T09:36:06.524Z,42.41
2023-02-06T09:37:01.733Z,42.06
2023-02-06T09:37:54.528Z,42.20
2023-02-06T09:38:50.897Z,42.25
2023-02-06T09:39:46.079Z,42.37
2023-02-06T09:40:38.971Z,42.33
2023-02-06T09:41:37.115Z,42.46
2023-02-06T09:42:34.976Z,42.09
2023-02-06T09:43:28.072Z,42.27
2023-02-06T09:44:25.630Z,42.41
2023-02-06T09:45:23.094Z,42.67
2023-02-06T09:46:16.258Z,42.35
2023-02-06T09:47:21.041Z,42.26
2023-02-06T09:48:17.031Z,42.21
2023-02-06T09:49:17.732Z,42.32
2023-02-06T09:50:22.964Z,42.60
2023-02-06T09:51:19.798Z,42.54
2023-02-06T09:52:42.928Z,42.31
2023-02-06T09:53:43.032Z,42.26
2023-02-06T09:54:47.420Z,42.55
2023-02-06T09:55:45.341Z,42.38
2023-02-06T09:56:42.761Z,42.38
2023-02-06T09:57:43.948Z,42.72
2023-02-06T09:58:45.274Z,42.80
2023-02-06T09:59:45.130Z,42.48
2023-02-06T10:00:46.527Z,42.54
2023-02-06T10:01:44.287Z,42.86
2023-02-06T10:02:53.578Z,42.56
2023-02-06T10:04:05.725Z,42.87
2023-02-06T10:05:04.628Z,42.63
2023-02-06T10:06:11.607Z,42.45
2023-02-06T10:07:19.747Z,42.84
2023-02-06T10:08:25.571Z,42.77
2023-02-06T10:09:20.885Z,42.89
2023-02-06T10:10:19.239Z,43.51
2023-02-06T10:11:16.507Z,43.83
2023-02-06T10:12:16.105Z,43.51
2023-02-06T10:13:13.712Z,42.85
2023-02-06T10:14:14.081Z,41.87
2023-02-06T10:15:14.883Z,41.30
2023-02-06T10:16:13.304Z,41.54
2023-02-06T10:17:15.686Z,41.22
2023-02-06T10:18:15.612Z,40.62
2023-02-06T10:19:16.761Z,40.38
2023-02-06T10:20:13.190Z,40.36
2023-02-06T10:21:13.271Z,40.35
2023-02-06T10:22:09.794Z,39.58
2023-02-06T10:23:09.845Z,39.45
2023-02-06T10:24:07.451Z,39.36
2023-02-06T10:25:17.651Z,39.41
2023-02-06T10:26:17.138Z,39.46
2023-02-06T10:27:15.239Z,39.26
2023-02-06T10:28:22.685Z,39.46
2023-02-06T10:29:22.605Z,39.33
2023-02-06T10:30:20.186Z,39.26
2023-02-06T10:31:53.732Z,38.85
2023-02-06T10:32:55.872Z,38.82
2023-02-06T10:34:08.673Z,39.23
2023-02-06T10:35:10.650Z,38.96
2023-02-06T10:36:10.217Z,38.92
2023-02-06T10:37:35.843Z,38.86
2023-02-06T10:38:54.040Z,39.22
2023-02-06T10:39:57.684Z,39.23
2023-02-06T10:40:55.474Z,38.98
2023-02-06T10:41:55.760Z,39.17
2023-02-06T10:42:56.780Z,38.90
2023-02-06T10:43:53.259Z,38.95
2023-02-06T10:44:54.709Z,38.70
2023-02-06T10:45:52.342Z,39.07
2023-02-06T10:46:48.938Z,39.04
2023-02-06T10:47:47.872Z,38.84
2023-02-06T10:48:45.557Z,38.56
2023-02-06T10:49:48.293Z,38.80
2023-02-06T10:50:44.287Z,38.84
2023-02-06T10:51:42.658Z,38.82
2023-02-06T10:52:35.935Z,38.54
2023-02-06T10:53:33.858Z,38.68
2023-02-06T10:54:31.528Z,38.72
2023-02-06T10:55:29.071Z,38.38
2023-02-06T10:56:26.635Z,38.27
2023-02-06T10:57:25.015Z,38.61
2023-02-06T10:58:20.934Z,38.82
2023-02-06T10:59:23.104Z,38.57
2023-02-06T11:00:21.710Z,38.53
2023-02-06T11:01:26.033Z,38.05
2023-02-06T11:02:24.911Z,38.05
2023-02-06T11:03:20.323Z,38.47
2023-02-06T11:04:18.714Z,38.56
2023-02-06T11:05:19.302Z,38.61
2023-02-06T11:06:14.171Z,38.15
2023-02-06T11:07:12.133Z,38.20
2023-02-06T11:08:13.912Z,38.38
2023-02-06T11:09:09.148Z,37.97
2023-02-06T11:10:01.713Z,37.97
2023-02-06T11:10:57.471Z,38.10
2023-02-06T11:11:51.434Z,38.07
2023-02-06T11:12:49.978Z,38.20
2023-02-06T11:13:45.338Z,38.10
2023-02-06T11:14:39.559Z,38.12
2023-02-06T11:15:37.404Z,38.34
2023-02-06T11:16:35.501Z,38.27
2023-02-06T11:17:28.603Z,38.63
2023-02-06T11:18:27.356Z,38.27
2023-02-06T11:19:30.356Z,38.62
2023-02-06T11:20:32.085Z,38.56
2023-02-06T11:21:55.595Z,38.67
2023-02-06T11:22:52.995Z,38.53
2023-02-06T11:23:48.424Z,38.41
2023-02-06T11:24:59.629Z,38.46
2023-02-06T11:26:10.677Z,38.63
2023-02-06T11:27:11.783Z,38.17
2023-02-06T11:28:07.319Z,38.33
2023-02-06T11:29:08.915Z,38.71
2023-02-06T11:30:10.581Z,38.61
2023-02-06T11:31:04.994Z,38.34
2023-02-06T11:32:01.910Z,38.37
2023-02-06T11:33:04.357Z,38.19
2023-02-06T11:34:00.183Z,38.36
2023-02-06T11:34:55.638Z,38.36
2023-02-06T11:35:56.489Z,38.35
2023-02-06T11:36:53.022Z,38.31
2023-02-06T11:37:48.278Z,38.32
2023-02-06T11:38:57.154Z,37.98
2023-02-06T11:39:49.723Z,38.27
2023-02-06T11:40:44.976Z,38.47
2023-02-06T11:41:37.609Z,38.42
2023-02-06T11:42:33.211Z,38.34
2023-02-06T11:43:30.021Z,38.29
2023-02-06T11:44:24.900Z,38.32
2023-02-06T11:45:28.791Z,38.41
2023-02-06T11:46:27.485Z,38.12
2023-02-06T11:47:25.051Z,37.95
2023-02-06T11:48:39.401Z,38.36
2023-02-06T11:49:32.058Z,38.03
2023-02-06T11:50:29.685Z,38.41
2023-02-06T11:51:28.150Z,38.26
2023-02-06T11:52:32.237Z,38.36
2023-02-06T11:53:27.428Z,38.15
2023-02-06T11:54:27.451Z,38.25
2023-02-06T11:55:27.481Z,38.10
2023-02-06T11:56:20.841Z,38.43
2023-02-06T11:57:23.923Z,38.10
2023-02-06T11:58:22.032Z,38.19
2023-02-06T11:59:23.323Z,38.04
2023-02-06T12:00:21.885Z,37.82
2023-02-06T12:01:22.759Z,38.01
2023-02-06T12:02:29.290Z,37.91
2023-02-06T12:03:37.081Z,38.48
2023-02-06T12:04:32.616Z,38.46
2023-02-06T12:05:30.925Z,38.34
2023-02-06T12:06:30.476Z,38.51
2023-02-06T12:07:30.664Z,38.18